createdAt,value
2017-02-12T00:00:57.162Z,1028.73
2017-02-12T00:02:19.670Z,1028.69
2017-02-12T00:03:41.728Z,1028.75
2017-02-12T00:05:04.485Z,1028.76
2017-02-12T00:06:26.219Z,1028.76
2017-02-12T00:07:48.688Z,1028.75
2017-02-12T00:09:10.789Z,1028.79
2017-02-12T00:10:33.198Z,1028.79
2017-02-12T00:11:54.848Z,1028.76
2017-02-12T00:13:16.528Z,1028.74
2017-02-12T00:14:38.240Z,1028.69
2017-02-12T00:16:00.542Z,1028.68
2017-02-12T00:17:23.410Z,1028.74
2017-02-12T00:18:45.471Z,1028.79
2017-02-12T00:20:07.576Z,1028.76
2017-02-12T00:21:29.536Z,1028.77
2017-02-12T00:22:51.602Z,1028.84
2017-02-12T00:24:14.562Z,1028.83
2017-02-12T00:25:36.630Z,1028.86
2017-02-12T00:26:59.835Z,1028.83
2017-02-12T00:28:21.508Z,1028.88
2017-02-12T00:29:43.571Z,1028.91
2017-02-12T00:31:05.267Z,1028.94
2017-02-12T00:32:27.262Z,1028.96
2017-02-12T00:33:49.341Z,1028.99
2017-02-12T00:35:11.814Z,1029.03
2017-02-12T00:36:33.893Z,1029.04
2017-02-12T00:37:55.879Z,1029
2017-02-12T00:39:16.811Z,1029.03
2017-02-12T00:40:38.482Z,1029
2017-02-12T00:42:00.560Z,1028.99
2017-02-12T00:43:23.287Z,1028.96
2017-02-12T00:44:44.633Z,1028.92
2017-02-12T00:46:06.776Z,1028.84
2017-02-12T00:47:29.254Z,1028.88
2017-02-12T00:48:51.973Z,1028.97
2017-02-12T00:50:14.119Z,1028.98
2017-02-12T00:51:36.617Z,1028.86
2017-02-12T00:52:59.521Z,1028.87
2017-02-12T00:54:21.847Z,1028.91
2017-02-12T00:55:44.751Z,1028.95
2017-02-12T00:57:06.823Z,1028.96
2017-02-12T00:58:29.330Z,1028.93
2017-02-12T00:59:52.100Z,1028.99
2017-02-12T01:01:13.366Z,1028.96
2017-02-12T01:02:35.481Z,1029.03
2017-02-12T01:03:57.541Z,1029.04
2017-02-12T01:05:19.967Z,1028.96
2017-02-12T01:06:42.009Z,1028.97
2017-02-12T01:08:04.092Z,1028.94
2017-02-12T01:09:26.556Z,1028.91
2017-02-12T01:10:48.979Z,1028.93
2017-02-12T01:12:10.639Z,1028.89
2017-02-12T01:13:33.122Z,1028.91
2017-02-12T01:14:55.649Z,1028.98
2017-02-12T01:16:18.011Z,1028.95
2017-02-12T01:17:39.330Z,1028.99
2017-02-12T01:19:01.024Z,1029.07
2017-02-12T01:20:23.128Z,1029.03
2017-02-12T01:21:45.495Z,1029.03
2017-02-12T01:23:08.355Z,1029.04
2017-02-12T01:24:29.661Z,1029.02
2017-02-12T01:25:51.710Z,1029.02
2017-02-12T01:27:14.062Z,1029.07
2017-02-12T01:28:36.545Z,1029.09
2017-02-12T01:29:58.600Z,1029.06
2017-02-12T01:31:20.279Z,1029.07
2017-02-12T01:32:42.641Z,1029.11
2017-02-12T01:34:05.119Z,1029.11
2017-02-12T01:35:27.593Z,1029.07
2017-02-12T01:36:50.050Z,1029.09
2017-02-12T01:38:13.065Z,1029.13
2017-02-12T01:39:34.715Z,1029.04
2017-02-12T01:40:56.366Z,1029.06
2017-02-12T01:42:18.462Z,1029.01
2017-02-12T01:43:41.248Z,1028.99
2017-02-12T01:45:03.318Z,1029
2017-02-12T01:46:25.891Z,1029.04
2017-02-12T01:47:48.409Z,1028.96
2017-02-12T01:49:10.420Z,1029.02
2017-02-12T01:50:32.477Z,1028.98
2017-02-12T01:51:54.118Z,1028.98
2017-02-12T01:53:15.778Z,1028.98
2017-02-12T01:54:38.100Z,1029.01
2017-02-12T01:56:00.569Z,1029.02
2017-02-12T01:57:23.016Z,1028.96
2017-02-12T01:58:43.891Z,1028.97
2017-02-12T02:00:06.658Z,1028.93
2017-02-12T02:01:28.333Z,1028.98
2017-02-12T02:02:49.982Z,1028.9
2017-02-12T02:04:11.644Z,1028.93
2017-02-12T02:05:34.781Z,1029.01
2017-02-12T02:06:56.458Z,1029.03
2017-02-12T02:08:18.114Z,1028.96
2017-02-12T02:09:40.167Z,1029.03
2017-02-12T02:11:03.082Z,1029.04
2017-02-12T02:12:25.538Z,1029.12
2017-02-12T02:13:48.394Z,1029.11
2017-02-12T02:15:10.172Z,1029.2
2017-02-12T02:16:32.132Z,1029.25
2017-02-12T02:17:54.994Z,1029.24
2017-02-12T02:19:17.469Z,1029.33
2017-02-12T02:20:39.911Z,1029.38
2017-02-12T02:22:02.337Z,1029.4
2017-02-12T02:23:24.797Z,1029.4
2017-02-12T02:24:47.317Z,1029.43
2017-02-12T02:26:09.878Z,1029.42
2017-02-12T02:27:31.782Z,1029.36
2017-02-12T02:28:53.702Z,1029.44
2017-02-12T02:30:16.561Z,1029.41
2017-02-12T02:31:38.643Z,1029.5
2017-02-12T02:33:02.071Z,1029.44
2017-02-12T02:34:24.109Z,1029.46
2017-02-12T02:35:46.569Z,1029.46
2017-02-12T02:37:07.898Z,1029.41
2017-02-12T02:38:30.282Z,1029.39
2017-02-12T02:39:52.348Z,1029.37
2017-02-12T02:41:13.242Z,1029.33
2017-02-12T02:42:35.738Z,1029.35
2017-02-12T02:43:58.150Z,1029.35
2017-02-12T02:45:20.210Z,1029.31
2017-02-12T02:46:42.658Z,1029.33
2017-02-12T02:48:04.709Z,1029.28
2017-02-12T02:49:27.419Z,1029.3
2017-02-12T02:50:48.678Z,1029.34
2017-02-12T02:52:11.534Z,1029.37
2017-02-12T02:53:33.594Z,1029.3
2017-02-12T02:54:55.539Z,1029.31
2017-02-12T02:56:17.589Z,1029.3
2017-02-12T02:57:40.447Z,1029.3
2017-02-12T02:59:02.901Z,1029.35
2017-02-12T03:00:24.052Z,1029.41
2017-02-12T03:01:45.701Z,1029.44
2017-02-12T03:03:07.738Z,1029.45
2017-02-12T03:04:29.380Z,1029.45
2017-02-12T03:05:51.912Z,1029.4
2017-02-12T03:07:13.677Z,1029.41
2017-02-12T03:08:35.328Z,1029.4
2017-02-12T03:09:56.984Z,1029.47
2017-02-12T03:11:19.743Z,1029.45
2017-02-12T03:12:41.781Z,1029.48
2017-02-12T03:14:04.221Z,1029.45
2017-02-12T03:15:26.293Z,1029.42
2017-02-12T03:16:48.254Z,1029.46
2017-02-12T03:18:10.303Z,1029.43
2017-02-12T03:19:31.571Z,1029.42
2017-02-12T03:20:53.239Z,1029.4
2017-02-12T03:22:15.691Z,1029.44
2017-02-12T03:23:37.739Z,1029.42
2017-02-12T03:25:00.192Z,1029.45
2017-02-12T03:26:21.962Z,1029.47
2017-02-12T03:27:44.769Z,1029.44
2017-02-12T03:29:06.814Z,1029.42
2017-02-12T03:30:28.468Z,1029.41
2017-02-12T03:31:50.519Z,1029.44
2017-02-12T03:33:12.431Z,1029.42
2017-02-12T03:34:34.878Z,1029.37
2017-02-12T03:35:56.952Z,1029.4
2017-02-12T03:37:19.030Z,1029.46
2017-02-12T03:38:41.861Z,1029.52
2017-02-12T03:40:03.516Z,1029.53
2017-02-12T03:41:24.862Z,1029.53
2017-02-12T03:42:46.918Z,1029.51
2017-02-12T03:44:08.461Z,1029.62
2017-02-12T03:45:29.450Z,1029.55
2017-02-12T03:46:51.163Z,1029.51
2017-02-12T03:48:13.232Z,1029.51
2017-02-12T03:49:35.388Z,1029.53
2017-02-12T03:50:58.328Z,1029.58
2017-02-12T03:52:20.010Z,1029.61
2017-02-12T03:53:42.448Z,1029.66
2017-02-12T03:55:05.600Z,1029.64
2017-02-12T03:56:28.130Z,1029.68
2017-02-12T03:57:49.803Z,1029.75
2017-02-12T03:59:11.861Z,1029.73
2017-02-12T04:00:33.664Z,1029.72
2017-02-12T04:01:55.022Z,1029.74
2017-02-12T04:03:17.091Z,1029.78
2017-02-12T04:04:39.162Z,1029.74
2017-02-12T04:06:02.397Z,1029.7
2017-02-12T04:07:25.259Z,1029.77
2017-02-12T04:08:47.329Z,1029.76
2017-02-12T04:10:08.622Z,1029.77
2017-02-12T04:11:31.431Z,1029.77
2017-02-12T04:12:53.147Z,1029.82
2017-02-12T04:14:15.993Z,1029.84
2017-02-12T04:15:38.050Z,1029.84
2017-02-12T04:16:59.729Z,1029.85
2017-02-12T04:18:22.179Z,1029.87
2017-02-12T04:19:44.638Z,1029.84
2017-02-12T04:21:07.518Z,1029.89
2017-02-12T04:22:30.270Z,1029.89
2017-02-12T04:23:51.545Z,1029.95
2017-02-12T04:25:14.049Z,1029.9
2017-02-12T04:26:36.492Z,1029.92
2017-02-12T04:27:58.899Z,1029.94
2017-02-12T04:29:20.592Z,1029.92
2017-02-12T04:30:42.643Z,1029.96
2017-02-12T04:32:04.301Z,1029.97
2017-02-12T04:33:26.746Z,1030
2017-02-12T04:34:48.802Z,1030.07
2017-02-12T04:36:11.322Z,1030.07
2017-02-12T04:37:33.390Z,1030.03
2017-02-12T04:38:55.344Z,1030
2017-02-12T04:40:17.398Z,1030.02
2017-02-12T04:41:39.442Z,1030.02
2017-02-12T04:43:01.900Z,1030
2017-02-12T04:44:24.240Z,1030.08
2017-02-12T04:45:46.311Z,1030.03
2017-02-12T04:47:08.363Z,1030.03
2017-02-12T04:48:30.917Z,1030.05
2017-02-12T04:49:53.281Z,1030.03
2017-02-12T04:51:14.974Z,1030.08
2017-02-12T04:52:37.403Z,1030.06
2017-02-12T04:53:59.149Z,1030.17
2017-02-12T04:55:21.119Z,1030.18
2017-02-12T04:56:43.619Z,1030.22
2017-02-12T04:58:06.071Z,1030.16
2017-02-12T04:59:27.328Z,1030.18
2017-02-12T05:00:49.279Z,1030.27
2017-02-12T05:02:11.791Z,1030.24
2017-02-12T05:03:34.260Z,1030.2
2017-02-12T05:04:55.922Z,1030.21
2017-02-12T05:06:19.722Z,1030.14
2017-02-12T05:07:42.559Z,1030.15
2017-02-12T05:09:04.307Z,1030.11
2017-02-12T05:10:26.381Z,1030.15
2017-02-12T05:11:49.540Z,1030.12
2017-02-12T05:13:11.213Z,1030.12
2017-02-12T05:14:34.053Z,1030.05
2017-02-12T05:15:56.136Z,1030.03
2017-02-12T05:17:18.973Z,1030.01
2017-02-12T05:18:40.735Z,1029.99
2017-02-12T05:20:03.191Z,1030.02
2017-02-12T05:21:24.071Z,1030.01
2017-02-12T05:22:46.169Z,1030.05
2017-02-12T05:24:07.963Z,1030.07
2017-02-12T05:25:31.163Z,1030.15
2017-02-12T05:26:53.204Z,1030.13
2017-02-12T05:28:15.958Z,1030.17
2017-02-12T05:29:37.199Z,1030.12
2017-02-12T05:30:59.269Z,1030.12
2017-02-12T05:32:20.132Z,1030.16
2017-02-12T05:33:42.489Z,1030.14
2017-02-12T05:35:04.149Z,1030.21
2017-02-12T05:36:26.219Z,1030.23
2017-02-12T05:37:48.680Z,1030.22
2017-02-12T05:39:10.994Z,1030.2
2017-02-12T05:40:32.781Z,1030.19
2017-02-12T05:41:54.948Z,1030.29
2017-02-12T05:43:16.213Z,1030.25
2017-02-12T05:44:39.099Z,1030.27
2017-02-12T05:46:01.590Z,1030.23
2017-02-12T05:47:23.692Z,1030.28
2017-02-12T05:48:45.751Z,1030.19
2017-02-12T05:50:07.350Z,1030.24
2017-02-12T05:51:29.559Z,1030.24
2017-02-12T05:52:51.328Z,1030.27
2017-02-12T05:54:13.416Z,1030.27
2017-02-12T05:55:34.999Z,1030.31
2017-02-12T05:56:57.138Z,1030.29
2017-02-12T05:58:18.790Z,1030.3
2017-02-12T05:59:40.857Z,1030.35
2017-02-12T06:01:02.422Z,1030.4
2017-02-12T06:02:24.521Z,1030.43
2017-02-12T06:03:46.219Z,1030.45
2017-02-12T06:05:08.645Z,1030.49
2017-02-12T06:06:30.958Z,1030.6
2017-02-12T06:07:52.241Z,1030.67
2017-02-12T06:09:13.502Z,1030.69
2017-02-12T06:10:35.160Z,1030.66
2017-02-12T06:11:57.140Z,1030.69
2017-02-12T06:13:19.683Z,1030.77
2017-02-12T06:14:42.180Z,1030.62
2017-02-12T06:16:03.442Z,1030.71
2017-02-12T06:17:24.989Z,1030.71
2017-02-12T06:18:46.656Z,1030.74
2017-02-12T06:20:08.766Z,1030.81
2017-02-12T06:21:31.232Z,1030.76
2017-02-12T06:22:53.737Z,1030.77
2017-02-12T06:24:15.424Z,1030.84
2017-02-12T06:25:37.490Z,1030.86
2017-02-12T06:27:00.008Z,1030.78
2017-02-12T06:28:23.111Z,1030.8
2017-02-12T06:29:44.774Z,1030.8
2017-02-12T06:31:07.644Z,1030.83
2017-02-12T06:32:29.714Z,1030.78
2017-02-12T06:33:52.133Z,1030.81
2017-02-12T06:35:14.192Z,1030.86
2017-02-12T06:36:35.861Z,1030.89
2017-02-12T06:37:58.357Z,1030.92
2017-02-12T06:39:20.272Z,1030.96
2017-02-12T06:40:41.941Z,1030.99
2017-02-12T06:42:03.985Z,1031.03
2017-02-12T06:43:26.040Z,1031.04
2017-02-12T06:44:48.352Z,1031.07
2017-02-12T06:46:10.808Z,1031.1
2017-02-12T06:47:32.879Z,1031.14
2017-02-12T06:48:54.921Z,1031.17
2017-02-12T06:50:17.367Z,1031.2
2017-02-12T06:51:39.478Z,1031.16
2017-02-12T06:53:01.259Z,1031.22
2017-02-12T06:54:22.963Z,1031.24
2017-02-12T06:55:45.411Z,1031.2
2017-02-12T06:57:07.092Z,1031.22
2017-02-12T06:58:28.750Z,1031.24
2017-02-12T06:59:50.902Z,1031.28
2017-02-12T07:01:12.421Z,1031.28
2017-02-12T07:02:34.878Z,1031.31
2017-02-12T07:03:56.611Z,1031.28
2017-02-12T07:05:18.304Z,1031.3
2017-02-12T07:06:40.720Z,1031.29
2017-02-12T07:08:02.409Z,1031.23
2017-02-12T07:09:24.501Z,1031.21
2017-02-12T07:10:46.161Z,1031.25
2017-02-12T07:12:08.878Z,1031.32
2017-02-12T07:13:30.169Z,1031.32
2017-02-12T07:14:52.641Z,1031.4
2017-02-12T07:16:15.513Z,1031.33
2017-02-12T07:17:38.674Z,1031.39
2017-02-12T07:19:00.450Z,1031.38
2017-02-12T07:20:21.771Z,1031.39
2017-02-12T07:21:43.959Z,1031.45
2017-02-12T07:23:05.871Z,1031.39
2017-02-12T07:24:27.930Z,1031.5
2017-02-12T07:25:51.069Z,1031.53
2017-02-12T07:27:12.751Z,1031.54
2017-02-12T07:28:35.583Z,1031.5
2017-02-12T07:29:57.811Z,1031.58
2017-02-12T07:31:20.270Z,1031.6
2017-02-12T07:32:41.951Z,1031.67
2017-02-12T07:34:04.822Z,1031.69
2017-02-12T07:35:27.659Z,1031.7
2017-02-12T07:36:50.118Z,1031.76
2017-02-12T07:38:11.779Z,1031.8
2017-02-12T07:39:33.795Z,1031.81
2017-02-12T07:40:55.956Z,1031.85
2017-02-12T07:42:18.503Z,1031.87
2017-02-12T07:43:41.372Z,1031.87
2017-02-12T07:45:03.271Z,1031.9
2017-02-12T07:46:24.960Z,1031.91
2017-02-12T07:47:46.733Z,1031.87
2017-02-12T07:49:08.816Z,1031.95
2017-02-12T07:50:31.594Z,1031.89
2017-02-12T07:51:54.041Z,1031.92
2017-02-12T07:53:15.432Z,1031.98
2017-02-12T07:54:37.890Z,1031.95
2017-02-12T07:56:00.250Z,1032.04
2017-02-12T07:57:23.181Z,1032.04
2017-02-12T07:58:44.880Z,1032.05
2017-02-12T08:00:06.946Z,1032.03
2017-02-12T08:01:29.700Z,1032.08
2017-02-12T08:02:51.803Z,1032.05
2017-02-12T08:04:13.463Z,1032.12
2017-02-12T08:05:36.415Z,1032.17
2017-02-12T08:06:58.869Z,1032.2
2017-02-12T08:08:21.770Z,1032.25
2017-02-12T08:09:43.442Z,1032.26
2017-02-12T08:11:05.314Z,1032.33
2017-02-12T08:12:28.447Z,1032.37
2017-02-12T08:13:50.160Z,1032.34
2017-02-12T08:15:11.451Z,1032.42
2017-02-12T08:16:33.516Z,1032.42
2017-02-12T08:17:56.222Z,1032.44
2017-02-12T08:19:18.703Z,1032.53
2017-02-12T08:20:41.164Z,1032.49
2017-02-12T08:22:03.670Z,1032.5
2017-02-12T08:23:26.111Z,1032.54
2017-02-12T08:24:48.564Z,1032.56
2017-02-12T08:26:11.142Z,1032.5
2017-02-12T08:27:33.616Z,1032.58
2017-02-12T08:28:55.498Z,1032.55
2017-02-12T08:30:17.616Z,1032.5
2017-02-12T08:31:40.103Z,1032.54
2017-02-12T08:33:01.772Z,1032.66
2017-02-12T08:34:23.784Z,1032.69
2017-02-12T08:35:45.842Z,1032.67
2017-02-12T08:37:07.568Z,1032.69
2017-02-12T08:38:29.383Z,1032.62
2017-02-12T08:39:51.836Z,1032.64
2017-02-12T08:41:13.538Z,1032.68
2017-02-12T08:42:35.579Z,1032.64
2017-02-12T08:43:56.860Z,1032.69
2017-02-12T08:45:18.815Z,1032.7
2017-02-12T08:46:41.481Z,1032.61
2017-02-12T08:48:04.372Z,1032.64
2017-02-12T08:49:26.074Z,1032.7
2017-02-12T08:50:48.790Z,1032.69
2017-02-12T08:52:11.298Z,1032.64
2017-02-12T08:53:33.360Z,1032.7
2017-02-12T08:54:56.242Z,1032.67
2017-02-12T08:56:18.257Z,1032.68
2017-02-12T08:57:40.832Z,1032.65
2017-02-12T08:59:03.814Z,1032.7
2017-02-12T09:00:25.882Z,1032.66
2017-02-12T09:01:48.306Z,1032.73
2017-02-12T09:03:10.390Z,1032.68
2017-02-12T09:04:32.467Z,1032.65
2017-02-12T09:05:55.041Z,1032.67
2017-02-12T09:07:17.804Z,1032.68
2017-02-12T09:08:40.722Z,1032.73
2017-02-12T09:10:03.192Z,1032.85
2017-02-12T09:11:25.665Z,1032.88
2017-02-12T09:12:48.378Z,1032.83
2017-02-12T09:14:10.481Z,1032.89
2017-02-12T09:15:32.623Z,1032.91
2017-02-12T09:16:55.093Z,1032.92
2017-02-12T09:18:17.523Z,1032.91
2017-02-12T09:19:39.583Z,1032.96
2017-02-12T09:21:01.764Z,1032.96
2017-02-12T09:22:23.873Z,1032.92
2017-02-12T09:23:46.634Z,1032.96
2017-02-12T09:25:09.117Z,1032.95
2017-02-12T09:26:31.590Z,1032.99
2017-02-12T09:27:54.060Z,1033.04
2017-02-12T09:29:16.829Z,1033
2017-02-12T09:30:39.411Z,1033.1
2017-02-12T09:32:01.869Z,1033.12
2017-02-12T09:33:23.171Z,1033.17
2017-02-12T09:34:45.133Z,1033.17
2017-02-12T09:36:08.005Z,1033.2
2017-02-12T09:37:30.499Z,1033.22
2017-02-12T09:38:52.176Z,1033.2
2017-02-12T09:40:14.931Z,1033.18
2017-02-12T09:41:37.460Z,1033.18
2017-02-12T09:42:59.145Z,1033.18
2017-02-12T09:44:21.299Z,1033.17
2017-02-12T09:45:44.063Z,1033.26
2017-02-12T09:47:06.158Z,1033.26
2017-02-12T09:48:27.443Z,1033.23
2017-02-12T09:49:49.540Z,1033.28
2017-02-12T09:51:11.947Z,1033.26
2017-02-12T09:52:33.649Z,1033.24
2017-02-12T09:53:55.451Z,1033.28
2017-02-12T09:55:17.902Z,1033.29
2017-02-12T09:56:40.263Z,1033.3
2017-02-12T09:58:02.761Z,1033.34
2017-02-12T09:59:25.348Z,1033.33
2017-02-12T10:00:46.642Z,1033.37
2017-02-12T10:02:09.398Z,1033.37
2017-02-12T10:03:31.199Z,1033.45
2017-02-12T10:04:53.747Z,1033.43
2017-02-12T10:06:16.628Z,1033.46
2017-02-12T10:07:39.501Z,1033.52
2017-02-12T10:09:01.581Z,1033.5
2017-02-12T10:10:24.431Z,1033.58
2017-02-12T10:11:46.089Z,1033.6
2017-02-12T10:13:08.892Z,1033.6
2017-02-12T10:14:31.090Z,1033.61
2017-02-12T10:15:54.111Z,1033.62
2017-02-12T10:17:16.590Z,1033.63
2017-02-12T10:18:39.031Z,1033.6
2017-02-12T10:20:01.081Z,1033.63
2017-02-12T10:21:23.969Z,1033.64
2017-02-12T10:22:46.449Z,1033.69
2017-02-12T10:24:08.484Z,1033.59
2017-02-12T10:25:30.174Z,1033.64
2017-02-12T10:26:52.683Z,1033.67
2017-02-12T10:28:14.356Z,1033.65
2017-02-12T10:29:37.130Z,1033.63
2017-02-12T10:30:59.621Z,1033.71
2017-02-12T10:32:21.703Z,1033.69
2017-02-12T10:33:44.616Z,1033.69
2017-02-12T10:35:07.469Z,1033.7
2017-02-12T10:36:30.140Z,1033.69
2017-02-12T10:37:52.640Z,1033.77
2017-02-12T10:39:15.111Z,1033.77
2017-02-12T10:40:37.477Z,1033.76
2017-02-12T10:41:59.217Z,1033.76
2017-02-12T10:43:22.128Z,1033.8
2017-02-12T10:44:43.865Z,1033.83
2017-02-12T10:46:05.794Z,1033.86
2017-02-12T10:47:27.082Z,1033.84
2017-02-12T10:48:49.709Z,1033.87
2017-02-12T10:50:11.769Z,1033.92
2017-02-12T10:51:34.494Z,1033.92
2017-02-12T10:52:56.612Z,1033.91
2017-02-12T10:54:19.631Z,1033.97
2017-02-12T10:55:42.566Z,1033.93
2017-02-12T10:57:05.411Z,1033.93
2017-02-12T10:58:28.310Z,1033.92
2017-02-12T10:59:51.209Z,1034.01
2017-02-12T11:01:13.815Z,1034.02
2017-02-12T11:02:36.593Z,1034.05
2017-02-12T11:03:59.099Z,1034.1
2017-02-12T11:05:21.980Z,1034.07
2017-02-12T11:06:44.111Z,1034.11
2017-02-12T11:08:06.526Z,1034.07
2017-02-12T11:09:28.638Z,1034.06
2017-02-12T11:10:51.593Z,1034.09
2017-02-12T11:12:13.696Z,1034.08
2017-02-12T11:13:36.482Z,1034.07
2017-02-12T11:14:59.378Z,1034.06
2017-02-12T11:16:21.960Z,1034.01
2017-02-12T11:17:44.872Z,1034
2017-02-12T11:19:07.676Z,1033.97
2017-02-12T11:20:30.782Z,1034.03
2017-02-12T11:21:53.261Z,1034.04
2017-02-12T11:23:15.823Z,1034.01
2017-02-12T11:24:39.233Z,1034.05
2017-02-12T11:26:02.136Z,1034
2017-02-12T11:27:25.046Z,1033.94
2017-02-12T11:28:47.672Z,1033.89
2017-02-12T11:30:10.947Z,1033.9
2017-02-12T11:31:33.838Z,1033.92
2017-02-12T11:32:56.062Z,1033.95
2017-02-12T11:34:18.968Z,1033.89
2017-02-12T11:35:41.791Z,1033.95
2017-02-12T11:37:03.869Z,1033.92
2017-02-12T11:38:25.976Z,1033.93
2017-02-12T11:39:48.081Z,1033.91
2017-02-12T11:41:11.353Z,1033.9
2017-02-12T11:42:33.828Z,1033.88
2017-02-12T11:43:56.910Z,1033.88
2017-02-12T11:45:20.147Z,1033.84
2017-02-12T11:46:43.285Z,1033.83
2017-02-12T11:48:05.397Z,1033.83
2017-02-12T11:49:28.300Z,1033.81
2017-02-12T11:50:51.228Z,1033.82
2017-02-12T11:52:13.711Z,1033.83
2017-02-12T11:53:35.837Z,1033.86
2017-02-12T11:54:58.762Z,1033.82
2017-02-12T11:56:21.716Z,1033.88
2017-02-12T11:57:44.134Z,1033.86
2017-02-12T11:59:05.911Z,1033.9
2017-02-12T12:00:28.821Z,1033.87
2017-02-12T12:01:50.553Z,1033.9
2017-02-12T12:03:13.378Z,1033.91
2017-02-12T12:04:35.932Z,1033.92
2017-02-12T12:05:58.880Z,1033.91
2017-02-12T12:07:21.011Z,1033.89
2017-02-12T12:08:44.505Z,1033.95
2017-02-12T12:10:07.500Z,1033.89
2017-02-12T12:11:29.699Z,1033.89
2017-02-12T12:12:52.598Z,1033.93
2017-02-12T12:14:15.387Z,1033.89
2017-02-12T12:15:38.373Z,1033.84
2017-02-12T12:17:01.345Z,1033.84
2017-02-12T12:18:23.599Z,1033.81
2017-02-12T12:19:46.328Z,1033.85
2017-02-12T12:21:08.821Z,1033.88
2017-02-12T12:22:30.650Z,1033.79
2017-02-12T12:23:53.157Z,1033.78
2017-02-12T12:25:15.482Z,1033.89
2017-02-12T12:26:38.036Z,1033.9
2017-02-12T12:28:00.519Z,1033.84
2017-02-12T12:29:22.637Z,1033.85
2017-02-12T12:30:45.083Z,1033.9
2017-02-12T12:32:08.079Z,1033.86
2017-02-12T12:33:30.555Z,1033.88
2017-02-12T12:34:53.033Z,1033.86
2017-02-12T12:36:15.354Z,1033.84
2017-02-12T12:37:37.869Z,1033.8
2017-02-12T12:39:00.812Z,1033.86
2017-02-12T12:40:22.902Z,1033.8
2017-02-12T12:41:46.151Z,1033.83
2017-02-12T12:43:08.271Z,1033.84
2017-02-12T12:44:30.381Z,1033.53
2017-02-12T12:45:53.292Z,1033.79
2017-02-12T12:47:16.053Z,1033.84
2017-02-12T12:48:38.934Z,1033.88
2017-02-12T12:50:01.486Z,1033.84
2017-02-12T12:51:23.998Z,1033.83
2017-02-12T12:52:46.366Z,1033.84
2017-02-12T12:54:08.917Z,1033.82
2017-02-12T12:55:31.862Z,1033.91
2017-02-12T12:56:54.407Z,1033.87
2017-02-12T12:58:17.272Z,1033.84
2017-02-12T12:59:39.379Z,1033.83
2017-02-12T13:01:01.896Z,1033.86
2017-02-12T13:02:24.103Z,1033.81
2017-02-12T13:03:47.334Z,1033.83
2017-02-12T13:05:10.299Z,1033.85
2017-02-12T13:06:32.790Z,1033.8
2017-02-12T13:07:55.695Z,1033.84
2017-02-12T13:09:18.448Z,1033.82
2017-02-12T13:10:40.360Z,1033.83
2017-02-12T13:12:02.855Z,1033.85
2017-02-12T13:13:25.806Z,1033.83
2017-02-12T13:14:48.196Z,1033.83
2017-02-12T13:16:10.295Z,1033.83
2017-02-12T13:17:32.800Z,1033.84
2017-02-12T13:18:54.914Z,1033.82
2017-02-12T13:20:17.700Z,1033.82
2017-02-12T13:21:40.426Z,1033.78
2017-02-12T13:23:03.388Z,1033.81
2017-02-12T13:24:26.020Z,1033.82
2017-02-12T13:25:49.436Z,1033.85
2017-02-12T13:27:11.963Z,1033.87
2017-02-12T13:28:34.111Z,1033.84
2017-02-12T13:29:56.201Z,1033.82
2017-02-12T13:31:19.363Z,1033.83
2017-02-12T13:32:41.574Z,1033.83
2017-02-12T13:34:03.700Z,1033.81
2017-02-12T13:35:26.210Z,1033.79
2017-02-12T13:36:49.445Z,1033.75
2017-02-12T13:38:12.731Z,1033.82
2017-02-12T13:39:35.124Z,1033.72
2017-02-12T13:40:57.643Z,1033.71
2017-02-12T13:42:20.867Z,1033.69
2017-02-12T13:43:43.028Z,1033.72
2017-02-12T13:45:05.200Z,1033.72
2017-02-12T13:46:27.733Z,1033.73
2017-02-12T13:47:50.944Z,1033.78
2017-02-12T13:49:13.119Z,1033.81
2017-02-12T13:50:35.314Z,1033.77
2017-02-12T13:51:57.848Z,1033.87
2017-02-12T13:53:20.475Z,1033.88
2017-02-12T13:54:43.030Z,1033.89
2017-02-12T13:56:05.530Z,1033.94
2017-02-12T13:57:28.535Z,1033.97
2017-02-12T13:58:51.283Z,1034
2017-02-12T14:00:13.482Z,1034
2017-02-12T14:01:36.371Z,1034.01
2017-02-12T14:02:58.102Z,1034.02
2017-02-12T14:04:20.974Z,1033.99
2017-02-12T14:05:43.901Z,1034.09
2017-02-12T14:07:06.591Z,1034.05
2017-02-12T14:08:28.351Z,1034.03
2017-02-12T14:09:51.464Z,1034.04
2017-02-12T14:11:13.648Z,1034.08
2017-02-12T14:12:36.127Z,1034.05
2017-02-12T14:13:58.634Z,1034.01
2017-02-12T14:15:21.412Z,1033.98
2017-02-12T14:16:44.290Z,1033.9
2017-02-12T14:18:07.180Z,1033.93
2017-02-12T14:19:29.689Z,1033.84
2017-02-12T14:20:52.074Z,1033.85
2017-02-12T14:22:15.011Z,1033.76
2017-02-12T14:23:37.117Z,1033.76
2017-02-12T14:24:59.193Z,1033.78
2017-02-12T14:26:22.422Z,1033.79
2017-02-12T14:27:44.976Z,1033.84
2017-02-12T14:29:07.911Z,1033.77
2017-02-12T14:30:30.579Z,1033.8
2017-02-12T14:31:53.753Z,1033.8
2017-02-12T14:33:16.892Z,1033.75
2017-02-12T14:34:39.875Z,1033.84
2017-02-12T14:36:01.977Z,1033.83
2017-02-12T14:37:24.727Z,1033.87
2017-02-12T14:38:47.681Z,1033.84
2017-02-12T14:40:10.642Z,1033.81
2017-02-12T14:41:33.177Z,1033.81
2017-02-12T14:42:56.347Z,1033.84
2017-02-12T14:44:18.843Z,1033.89
2017-02-12T14:45:41.672Z,1033.88
2017-02-12T14:47:04.168Z,1033.86
2017-02-12T14:48:26.276Z,1033.89
2017-02-12T14:49:48.820Z,1033.91
2017-02-12T14:51:10.528Z,1033.98
2017-02-12T14:52:31.837Z,1033.97
2017-02-12T14:53:55.020Z,1033.95
2017-02-12T14:55:17.975Z,1034
2017-02-12T14:56:39.699Z,1033.95
2017-02-12T14:58:02.737Z,1033.97
2017-02-12T14:59:25.969Z,1034.01
2017-02-12T15:00:48.516Z,1034.05
2017-02-12T15:02:11.063Z,1034.06
2017-02-12T15:03:33.194Z,1034.04
2017-02-12T15:04:56.080Z,1034.07
2017-02-12T15:06:18.792Z,1034.14
2017-02-12T15:07:41.728Z,1034.09
2017-02-12T15:09:04.218Z,1034.12
2017-02-12T15:10:26.592Z,1034.07
2017-02-12T15:11:49.094Z,1034.17
2017-02-12T15:13:12.129Z,1034.1
2017-02-12T15:14:35.025Z,1034.19
2017-02-12T15:15:57.961Z,1034.16
2017-02-12T15:17:20.054Z,1034.21
2017-02-12T15:18:43.101Z,1034.19
2017-02-12T15:20:06.000Z,1034.22
2017-02-12T15:21:28.794Z,1034.24
2017-02-12T15:22:51.344Z,1034.26
2017-02-12T15:24:14.284Z,1034.26
2017-02-12T15:25:37.395Z,1034.25
2017-02-12T15:27:00.630Z,1034.25
2017-02-12T15:28:23.125Z,1034.28
2017-02-12T15:29:45.275Z,1034.24
2017-02-12T15:31:08.182Z,1034.25
2017-02-12T15:32:31.074Z,1034.23
2017-02-12T15:33:54.009Z,1034.19
2017-02-12T15:35:16.496Z,1034.18
2017-02-12T15:36:39.010Z,1034.15
2017-02-12T15:38:01.005Z,1034.14
2017-02-12T15:39:23.517Z,1034.05
2017-02-12T15:40:45.696Z,1034.09
2017-02-12T15:42:08.314Z,1034.04
2017-02-12T15:43:31.495Z,1034.03
2017-02-12T15:44:54.166Z,1034.01
2017-02-12T15:46:17.172Z,1034.07
2017-02-12T15:47:39.780Z,1034.06
2017-02-12T15:49:02.180Z,1034.12
2017-02-12T15:50:24.705Z,1034.16
2017-02-12T15:51:47.691Z,1034.18
2017-02-12T15:53:09.796Z,1034.17
2017-02-12T15:54:32.952Z,1034.22
2017-02-12T15:55:55.076Z,1034.23
2017-02-12T15:57:18.192Z,1034.19
2017-02-12T15:58:40.658Z,1034.19
2017-02-12T16:00:02.992Z,1034.23
2017-02-12T16:01:25.488Z,1034.25
2017-02-12T16:02:48.410Z,1034.22
2017-02-12T16:04:10.551Z,1034.3
2017-02-12T16:05:33.090Z,1034.27
2017-02-12T16:06:55.652Z,1034.24
2017-02-12T16:08:18.225Z,1034.26
2017-02-12T16:09:41.204Z,1034.27
2017-02-12T16:11:03.707Z,1034.25
2017-02-12T16:12:26.311Z,1034.31
2017-02-12T16:13:48.895Z,1034.31
2017-02-12T16:15:11.150Z,1034.31
2017-02-12T16:16:33.607Z,1034.32
2017-02-12T16:17:55.767Z,1034.31
2017-02-12T16:19:17.904Z,1034.32
2017-02-12T16:20:40.922Z,1034.32
2017-02-12T16:22:04.102Z,1034.4
2017-02-12T16:23:26.594Z,1034.38
2017-02-12T16:24:49.502Z,1034.4
2017-02-12T16:26:12.109Z,1034.4
2017-02-12T16:27:34.120Z,1034.42
2017-02-12T16:28:56.250Z,1034.39
2017-02-12T16:30:19.182Z,1034.37
2017-02-12T16:31:41.679Z,1034.41
2017-02-12T16:33:04.875Z,1034.42
2017-02-12T16:34:27.391Z,1034.42
2017-02-12T16:35:49.883Z,1034.41
2017-02-12T16:37:12.383Z,1034.41
2017-02-12T16:38:35.523Z,1034.41
2017-02-12T16:39:58.521Z,1034.39
2017-02-12T16:41:20.610Z,1034.4